Terminal Aerodrome Forecast
Issued by NWS Bismarck, ND

Home | Current Version | Previous Version | Text Only | Print | Product List | Glossary On
Versions: 1 2 3 4 5 6 7 8 9 10 11 12 13 14 15 16
000
FTUS43 KBIS 012336
TAFBIS
TAF
KBIS 012336Z 0200/0224 18010KT P6SM SCT060
     FM020700 19004KT P6SM FEW050
     FM020900 18004KT 5SM BR SKC
     FM021400 15008KT P6SM SKC
     FM022100 16014KT P6SM SCT150=

USA.gov is the U.S. government's official web portal to all federal, state and local government web resources and services.